createdAt,value
2022-08-25T00:00:46.969Z,91.56
2022-08-25T00:03:13.733Z,91.81
2022-08-25T00:05:40.441Z,91.81
2022-08-25T00:08:07.613Z,91.95
2022-08-25T00:10:38.021Z,91.60
2022-08-25T00:13:04.976Z,91.72
2022-08-25T00:15:32.444Z,91.32
2022-08-25T00:18:00.185Z,91.21
2022-08-25T00:20:28.169Z,91.03
2022-08-25T00:22:56.121Z,91.19
2022-08-25T00:25:23.611Z,90.95
2022-08-25T00:27:51.360Z,90.98
2022-08-25T00:30:18.512Z,91.19
2022-08-25T00:32:48.893Z,91.17
2022-08-25T00:35:23.121Z,91.31
2022-08-25T00:37:49.908Z,91.51
2022-08-25T00:40:16.621Z,91.79
2022-08-25T00:42:43.271Z,92.35
2022-08-25T00:45:18.928Z,92.45
2022-08-25T00:47:45.582Z,92.53
2022-08-25T00:50:12.283Z,92.28
2022-08-25T00:52:42.352Z,92.02
2022-08-25T00:55:10.065Z,92.04
2022-08-25T00:58:06.827Z,92.09
2022-08-25T01:00:37.100Z,92.22
2022-08-25T01:03:04.008Z,92.11
2022-08-25T01:05:30.648Z,92.20
2022-08-25T01:07:58.610Z,92.34
2022-08-25T01:10:26.120Z,92.30
2022-08-25T01:12:52.915Z,92.10
2022-08-25T01:15:19.649Z,91.84
2022-08-25T01:17:51.145Z,91.88
2022-08-25T01:20:19.902Z,91.76
2022-08-25T01:22:49.231Z,91.71
2022-08-25T01:25:31.286Z,91.20
2022-08-25T01:27:57.925Z,90.70
2022-08-25T01:30:24.737Z,90.56
2022-08-25T01:32:51.367Z,90.73
2022-08-25T01:35:19.180Z,90.69
2022-08-25T01:37:45.857Z,90.80
2022-08-25T01:40:12.973Z,91.54
2022-08-25T01:42:46.990Z,91.43
2022-08-25T01:45:14.020Z,91.91
2022-08-25T01:47:40.632Z,92.09
2022-08-25T01:50:07.734Z,91.61
2022-08-25T01:52:39.420Z,91.61
2022-08-25T01:55:06.777Z,90.97
2022-08-25T01:57:33.553Z,90.77
2022-08-25T02:00:01.914Z,91.27
2022-08-25T02:02:28.618Z,92.01
2022-08-25T02:04:58.450Z,92.58
2022-08-25T02:07:26.836Z,92.76
2022-08-25T02:09:54.780Z,93.06
2022-08-25T02:12:21.592Z,93.31
2022-08-25T02:14:48.867Z,93.67
2022-08-25T02:17:15.478Z,94.22
2022-08-25T02:19:42.085Z,93.93
2022-08-25T02:22:08.758Z,94.49
2022-08-25T02:24:35.363Z,94.80
2022-08-25T02:27:04.085Z,94.98
2022-08-25T02:29:30.799Z,94.91
2022-08-25T02:31:57.581Z,95.37
2022-08-25T02:34:24.192Z,95.26
2022-08-25T02:36:50.853Z,95.22
2022-08-25T02:39:17.455Z,95.18
2022-08-25T02:41:44.273Z,95.22
2022-08-25T02:44:11.108Z,95.32
2022-08-25T02:46:37.810Z,95.13
2022-08-25T02:49:05.346Z,94.83
2022-08-25T02:51:32.153Z,94.91
2022-08-25T02:53:59.652Z,94.86
2022-08-25T02:56:26.402Z,94.60
2022-08-25T02:58:53.043Z,94.44
2022-08-25T03:01:19.746Z,94.46
2022-08-25T03:03:48.754Z,94.39
2022-08-25T03:06:18.545Z,94.11
2022-08-25T03:08:45.461Z,93.75
2022-08-25T03:11:12.387Z,93.83
2022-08-25T03:13:39.007Z,93.90
2022-08-25T03:16:10.851Z,94.20
2022-08-25T03:18:39.282Z,93.89
2022-08-25T03:21:07.127Z,94.01
2022-08-25T03:23:33.928Z,94.11
2022-08-25T03:26:19.235Z,94.26
2022-08-25T03:28:45.878Z,94.06
2022-08-25T03:31:12.531Z,93.78
2022-08-25T03:33:40.212Z,93.89
2022-08-25T03:36:07.454Z,93.79
2022-08-25T03:38:34.133Z,93.95
2022-08-25T03:41:02.253Z,94.25
2022-08-25T03:43:28.902Z,94.15
2022-08-25T03:45:55.559Z,94.27
2022-08-25T03:48:22.270Z,94.41
2022-08-25T03:50:51.946Z,94.59
2022-08-25T03:53:19.565Z,94.50
2022-08-25T03:55:46.336Z,94.77
2022-08-25T03:58:12.936Z,94.71
2022-08-25T04:00:39.616Z,94.80
2022-08-25T04:03:06.545Z,94.83
2022-08-25T04:05:33.181Z,94.71
2022-08-25T04:08:01.885Z,94.46
2022-08-25T04:10:29.016Z,94.09
2022-08-25T04:12:56.250Z,94.18
2022-08-25T04:15:23.089Z,94.54
2022-08-25T04:17:51.859Z,94.58
2022-08-25T04:20:19.003Z,94.61
2022-08-25T04:22:45.723Z,94.45
2022-08-25T04:25:12.561Z,94.09
2022-08-25T04:27:39.145Z,94.10
2022-08-25T04:30:06.694Z,94.04
2022-08-25T04:32:33.398Z,94.27
2022-08-25T04:35:00.103Z,94.41
2022-08-25T04:37:26.758Z,94.44
2022-08-25T04:39:53.405Z,94.07
2022-08-25T04:42:20.414Z,94.00
2022-08-25T04:44:47.019Z,93.97
2022-08-25T04:47:13.699Z,93.30
2022-08-25T04:49:40.620Z,93.39
2022-08-25T04:52:13.092Z,93.12
2022-08-25T04:54:41.575Z,93.13
2022-08-25T04:57:08.178Z,93.23
2022-08-25T04:59:34.956Z,92.90
2022-08-25T05:02:05.431Z,92.95
2022-08-25T05:04:33.438Z,92.99
2022-08-25T05:07:00.236Z,92.76
2022-08-25T05:09:27.211Z,92.69
2022-08-25T05:11:54.926Z,92.66
2022-08-25T05:14:23.195Z,92.60
2022-08-25T05:16:52.578Z,92.54
2022-08-25T05:19:19.525Z,92.60
2022-08-25T05:21:46.143Z,92.11
2022-08-25T05:24:12.755Z,92.22
2022-08-25T05:26:39.780Z,91.56
2022-08-25T05:29:06.913Z,91.54
2022-08-25T06:47:09.857Z,84.87
2022-08-25T06:49:36.611Z,84.94
2022-08-25T06:52:03.635Z,84.87
2022-08-25T06:54:30.323Z,84.44
2022-08-25T06:56:57.045Z,83.79
2022-08-25T06:59:25.233Z,83.59
2022-08-25T07:01:59.470Z,83.24
2022-08-25T07:04:26.515Z,82.32
2022-08-25T07:06:53.123Z,82.03
2022-08-25T07:09:19.750Z,82.58
2022-08-25T07:11:46.639Z,82.06
2022-08-25T07:14:16.201Z,82.15
2022-08-25T07:16:48.597Z,82.12
2022-08-25T07:19:16.314Z,82.55
2022-08-25T07:21:45.910Z,82.69
2022-08-25T07:24:13.591Z,83.39
2022-08-25T07:26:42.120Z,83.10
2022-08-25T07:29:17.484Z,82.99
2022-08-25T07:31:44.415Z,82.58
2022-08-25T07:34:29.702Z,82.79
2022-08-25T07:36:56.837Z,82.52
2022-08-25T07:39:23.788Z,82.89
2022-08-25T07:41:52.197Z,83.07
2022-08-25T07:44:19.112Z,82.76
2022-08-25T07:46:45.840Z,82.19
2022-08-25T07:49:17.151Z,82.29
2022-08-25T07:52:03.963Z,82.04
2022-08-25T07:54:34.052Z,82.47
2022-08-25T07:57:03.164Z,82.23
2022-08-25T07:59:29.841Z,81.49
2022-08-25T08:01:57.411Z,80.32
2022-08-25T08:04:24.626Z,80.75
2022-08-25T08:06:54.571Z,80.70
2022-08-25T08:09:21.265Z,79.98
2022-08-25T08:11:53.863Z,79.33
2022-08-25T08:14:21.146Z,78.58
2022-08-25T08:16:47.861Z,78.29
2022-08-25T08:19:30.016Z,78.12
2022-08-25T08:21:56.625Z,78.32
2022-08-25T08:24:44.367Z,77.82
2022-08-25T08:27:11.627Z,77.77
2022-08-25T08:29:39.148Z,77.74
2022-08-25T08:32:06.971Z,75.78
2022-08-25T08:34:34.057Z,73.62
2022-08-25T08:37:00.749Z,74.14
2022-08-25T08:39:28.262Z,73.50
2022-08-25T08:42:18.285Z,72.10
2022-08-25T08:44:44.787Z,72.64
2022-08-25T08:47:27.418Z,71.26
2022-08-25T08:50:30.693Z,71.30
2022-08-25T08:53:05.244Z,70.00
2022-08-25T08:55:35.810Z,70.83
2022-08-25T08:58:09.957Z,69.13
2022-08-25T09:00:40.794Z,69.44
2022-08-25T09:03:13.223Z,70.35
2022-08-25T09:05:46.859Z,68.61
2022-08-25T09:08:14.777Z,68.86
2022-08-25T09:11:00.329Z,67.80
2022-08-25T09:13:36.084Z,67.18
2022-08-25T09:16:46.834Z,67.38
2022-08-25T09:19:21.270Z,67.08
2022-08-25T09:21:58.384Z,67.50
2022-08-25T09:24:57.401Z,67.07
2022-08-25T09:27:33.066Z,68.34
2022-08-25T09:30:10.901Z,68.43
2022-08-25T09:32:52.494Z,66.15
2022-08-25T09:35:27.771Z,66.01
2022-08-25T09:38:09.284Z,65.97
2022-08-25T09:40:38.196Z,67.34
2022-08-25T09:43:31.929Z,66.05
2022-08-25T09:46:26.955Z,65.56
2022-08-25T09:48:56.056Z,65.14
2022-08-25T09:51:42.995Z,64.29
2022-08-25T09:54:13.782Z,64.11
2022-08-25T09:56:57.745Z,64.33
2022-08-25T09:59:34.751Z,63.02
2022-08-25T10:02:27.685Z,62.68
2022-08-25T10:04:54.451Z,62.73
2022-08-25T10:07:21.007Z,63.13
2022-08-25T10:10:01.806Z,62.58
2022-08-25T10:12:37.482Z,64.01
2022-08-25T10:15:30.469Z,63.28
2022-08-25T10:18:19.049Z,61.97
2022-08-25T10:20:53.361Z,62.33
2022-08-25T10:23:20.010Z,63.51
2022-08-25T10:25:57.827Z,62.65
2022-08-25T10:28:38.476Z,65.02
2022-08-25T10:31:41.960Z,64.44
2022-08-25T10:34:31.659Z,63.13
2022-08-25T10:37:32.723Z,63.12
2022-08-25T10:40:11.034Z,63.86
2022-08-25T10:42:57.428Z,65.59
2022-08-25T10:45:43.486Z,66.57
2022-08-25T10:48:32.096Z,64.58
2022-08-25T10:51:19.583Z,65.38
2022-08-25T10:54:19.674Z,63.79
2022-08-25T10:57:01.950Z,64.67
2022-08-25T10:59:58.472Z,65.63
2022-08-25T11:02:41.405Z,65.96
2022-08-25T11:05:24.611Z,65.40
2022-08-25T11:07:54.499Z,64.19
2022-08-25T11:10:43.945Z,62.80
2022-08-25T11:13:16.568Z,63.22
2022-08-25T11:16:15.878Z,63.66
2022-08-25T11:19:11.230Z,62.98
2022-08-25T11:21:43.210Z,62.79
2022-08-25T11:24:13.029Z,62.63
2022-08-25T11:26:40.535Z,62.51
2022-08-25T11:29:16.615Z,62.44
2022-08-25T11:31:50.762Z,62.90
2022-08-25T11:34:19.852Z,62.33
2022-08-25T11:36:52.060Z,62.80
2022-08-25T11:39:37.434Z,61.95
2022-08-25T11:42:34.117Z,61.50
2022-08-25T11:45:13.067Z,60.52
2022-08-25T11:48:11.521Z,61.39
2022-08-25T11:51:03.077Z,62.21
2022-08-25T11:53:33.654Z,62.64
2022-08-25T11:56:09.049Z,62.06
2022-08-25T11:58:51.847Z,61.50
2022-08-25T12:01:40.249Z,62.38
2022-08-25T12:04:15.193Z,61.69
2022-08-25T12:07:06.943Z,60.58
2022-08-25T12:09:54.600Z,60.81
2022-08-25T12:12:31.628Z,60.38
2022-08-25T12:15:54.187Z,60.87
2022-08-25T12:18:23.752Z,59.53
2022-08-25T12:20:54.433Z,60.61
2022-08-25T12:23:44.794Z,61.04
2022-08-25T12:26:42.778Z,59.04
2022-08-25T12:29:40.874Z,57.61
2022-08-25T12:32:41.173Z,57.76
2022-08-25T12:35:10.888Z,58.26
2022-08-25T12:37:57.507Z,57.90
2022-08-25T12:40:31.883Z,59.15
2022-08-25T12:43:20.583Z,58.31
2022-08-25T12:46:20.463Z,57.37
2022-08-25T12:49:00.911Z,58.49
2022-08-25T12:51:33.508Z,57.58
2022-08-25T12:54:22.920Z,58.78
2022-08-25T12:56:57.912Z,58.22
2022-08-25T12:59:34.000Z,57.97
2022-08-25T13:02:09.997Z,57.97
2022-08-25T13:05:15.425Z,59.51
2022-08-25T13:07:57.260Z,59.65
2022-08-25T13:10:34.258Z,60.02
2022-08-25T13:13:10.812Z,60.04
2022-08-25T13:15:41.509Z,59.61
2022-08-25T13:18:29.087Z,61.29
2022-08-25T13:21:27.832Z,61.33
2022-08-25T13:24:01.479Z,60.16
2022-08-25T13:26:34.116Z,59.64
2022-08-25T13:29:13.614Z,60.41
2022-08-25T13:31:54.093Z,60.80
2022-08-25T13:34:23.575Z,60.37
2022-08-25T13:37:31.242Z,58.44
2022-08-25T13:40:27.095Z,59.18
2022-08-25T13:42:57.579Z,58.95
2022-08-25T13:45:26.370Z,59.76
2022-08-25T13:47:55.827Z,60.37
2022-08-25T13:50:26.465Z,59.73
2022-08-25T13:52:57.034Z,59.78
2022-08-25T13:55:27.474Z,60.86
2022-08-25T13:57:55.781Z,59.50
2022-08-25T14:00:43.482Z,58.99
2022-08-25T14:03:34.229Z,57.58
2022-08-25T14:06:25.672Z,58.96
2022-08-25T14:08:58.598Z,58.14
2022-08-25T14:11:45.073Z,58.21
2022-08-25T14:14:24.819Z,58.50
2022-08-25T14:17:21.917Z,59.63
2022-08-25T14:19:53.548Z,58.92
2022-08-25T14:22:20.197Z,59.44
2022-08-25T14:24:46.822Z,59.41
2022-08-25T14:27:13.445Z,59.23
2022-08-25T14:29:41.319Z,60.95
2022-08-25T14:32:08.014Z,59.98
2022-08-25T14:34:36.960Z,60.13
2022-08-25T14:37:18.849Z,60.28
2022-08-25T14:39:46.087Z,60.87
2022-08-25T14:42:13.588Z,60.52
2022-08-25T14:44:40.236Z,61.30
2022-08-25T14:47:07.145Z,62.67
2022-08-25T14:49:36.476Z,62.11
2022-08-25T14:52:18.781Z,62.44
2022-08-25T14:54:49.254Z,62.78
2022-08-25T14:57:21.205Z,63.48
2022-08-25T14:59:51.834Z,63.13
2022-08-25T15:02:20.126Z,63.25
2022-08-25T15:04:54.308Z,63.46
2022-08-25T15:07:40.629Z,62.46
2022-08-25T15:10:07.846Z,62.90
2022-08-25T15:12:46.861Z,62.96
2022-08-25T15:15:14.441Z,62.80
2022-08-25T15:17:41.941Z,62.65
2022-08-25T15:20:11.459Z,62.28
2022-08-25T15:22:38.156Z,64.04
2022-08-25T15:25:05.133Z,62.89
2022-08-25T15:27:31.868Z,63.01
2022-08-25T15:29:58.523Z,62.44
2022-08-25T15:32:25.166Z,62.86
2022-08-25T15:34:54.546Z,62.47
2022-08-25T15:37:21.162Z,62.84
2022-08-25T15:39:48.994Z,62.38
2022-08-25T15:42:16.867Z,62.51
2022-08-25T15:44:53.452Z,61.37
2022-08-25T15:47:21.216Z,61.25
2022-08-25T15:49:47.855Z,61.64
2022-08-25T15:52:14.491Z,61.91
2022-08-25T15:54:41.163Z,62.27
2022-08-25T15:57:09.197Z,62.36
2022-08-25T15:59:40.257Z,62.37
2022-08-25T16:02:15.154Z,63.09
2022-08-25T16:04:42.074Z,63.16
2022-08-25T16:07:09.531Z,62.40
2022-08-25T16:09:40.990Z,62.21
2022-08-25T16:12:08.701Z,63.05
2022-08-25T16:14:35.693Z,62.84
2022-08-25T16:17:02.334Z,61.98
2022-08-25T16:19:29.091Z,62.77
2022-08-25T16:21:55.757Z,62.02
2022-08-25T16:24:22.361Z,62.47
2022-08-25T16:26:50.535Z,62.54
2022-08-25T16:29:18.755Z,62.35
2022-08-25T16:31:48.168Z,62.88
2022-08-25T16:34:22.390Z,63.12
2022-08-25T16:36:52.486Z,63.32
2022-08-25T16:39:20.625Z,63.38
2022-08-25T16:41:47.414Z,64.18
2022-08-25T16:44:14.183Z,64.31
2022-08-25T16:46:42.362Z,64.08
2022-08-25T16:49:11.312Z,64.61
2022-08-25T16:51:38.465Z,64.79
2022-08-25T16:54:24.246Z,64.83
2022-08-25T16:56:55.162Z,64.75
2022-08-25T16:59:23.572Z,64.78
2022-08-25T17:01:50.457Z,65.16
2022-08-25T17:04:17.525Z,65.22
2022-08-25T17:06:51.629Z,65.95
2022-08-25T17:09:23.776Z,66.22
2022-08-25T17:11:54.299Z,66.04
2022-08-25T17:14:21.626Z,65.75
2022-08-25T17:16:50.679Z,66.72
2022-08-25T17:19:17.624Z,67.26
2022-08-25T17:21:46.467Z,67.29
2022-08-25T17:24:13.642Z,67.48
2022-08-25T17:26:41.449Z,67.65
2022-08-25T17:29:08.964Z,67.68
2022-08-25T17:31:39.847Z,67.93
2022-08-25T17:34:10.294Z,67.87
2022-08-25T17:36:37.076Z,67.75
2022-08-25T17:39:04.260Z,68.04
2022-08-25T17:41:32.152Z,68.54
2022-08-25T17:43:59.321Z,69.02
2022-08-25T17:46:27.182Z,69.56
2022-08-25T17:48:53.908Z,69.84
2022-08-25T17:51:20.642Z,70.51
2022-08-25T17:53:48.807Z,71.76
2022-08-25T17:56:18.536Z,72.12
2022-08-25T17:58:45.395Z,73.18
2022-08-25T18:01:17.213Z,73.30
2022-08-25T18:03:44.250Z,73.63
2022-08-25T18:06:15.091Z,74.35
2022-08-25T18:08:42.950Z,75.13
2022-08-25T18:11:09.907Z,74.99
2022-08-25T18:16:05.193Z,76.69
2022-08-25T18:18:34.486Z,76.19
2022-08-25T18:21:02.180Z,76.41
2022-08-25T18:23:29.838Z,76.60
2022-08-25T18:26:00.767Z,76.41
2022-08-25T18:28:28.952Z,76.69
2022-08-25T18:30:55.882Z,76.82
2022-08-25T18:33:23.092Z,76.80
2022-08-25T18:35:49.741Z,76.97
2022-08-25T18:38:35.042Z,76.79
2022-08-25T18:41:05.510Z,76.83
2022-08-25T18:43:34.025Z,77.02
2022-08-25T18:46:01.602Z,76.79
2022-08-25T18:48:28.381Z,76.90
2022-08-25T18:50:55.248Z,76.94
2022-08-25T18:53:51.146Z,76.77
2022-08-25T18:56:22.479Z,76.86
2022-08-25T18:58:49.079Z,77.01
2022-08-25T19:01:21.636Z,76.99
2022-08-25T19:03:49.432Z,77.46
2022-08-25T19:06:16.967Z,77.70
2022-08-25T19:08:45.185Z,77.89
2022-08-25T19:11:12.100Z,78.31
2022-08-25T19:13:38.995Z,78.40
2022-08-25T19:16:17.705Z,79.74
2022-08-25T19:18:47.708Z,80.79
2022-08-25T19:21:14.784Z,80.23
2022-08-25T19:23:41.503Z,79.80
2022-08-25T19:26:17.002Z,79.50
2022-08-25T19:28:45.581Z,79.43
2022-08-25T19:31:18.729Z,79.63
2022-08-25T19:33:49.548Z,80.33
2022-08-25T19:36:16.771Z,79.97
2022-08-25T19:38:44.495Z,80.35
2022-08-25T19:41:14.422Z,80.49
2022-08-25T19:43:55.165Z,80.43
2022-08-25T19:46:32.067Z,80.33
2022-08-25T19:49:06.961Z,81.46
2022-08-25T19:51:36.289Z,81.50
2022-08-25T19:54:03.328Z,81.37
2022-08-25T19:56:30.843Z,81.37
2022-08-25T19:58:57.499Z,81.76
2022-08-25T20:01:24.506Z,82.24
2022-08-25T20:03:52.157Z,81.95
2022-08-25T20:06:18.859Z,81.91
2022-08-25T20:08:45.600Z,82.01
2022-08-25T20:11:12.314Z,81.94
2022-08-25T20:13:39.134Z,82.39
2022-08-25T20:16:06.104Z,82.71
2022-08-25T20:18:32.757Z,83.26
2022-08-25T20:21:00.376Z,83.53
2022-08-25T20:23:46.267Z,83.23
2022-08-25T20:26:12.912Z,83.74
2022-08-25T20:28:42.071Z,83.62
2022-08-25T20:31:09.074Z,83.49
2022-08-25T20:33:36.134Z,83.29
2022-08-25T20:36:04.781Z,83.38
2022-08-25T20:38:32.294Z,83.41
2022-08-25T20:41:00.295Z,84.21
2022-08-25T20:43:28.023Z,84.29
2022-08-25T20:46:01.835Z,84.53
2022-08-25T20:48:28.687Z,84.47
2022-08-25T20:50:57.812Z,84.29
2022-08-25T20:53:25.194Z,84.15
2022-08-25T20:55:52.079Z,84.54
2022-08-25T20:58:18.994Z,84.57
2022-08-25T21:00:46.034Z,84.43
2022-08-25T21:03:12.703Z,84.41
2022-08-25T21:05:40.484Z,84.95
2022-08-25T21:08:12.613Z,85.19
2022-08-25T21:10:40.139Z,85.67
2022-08-25T21:13:06.763Z,85.41
2022-08-25T21:15:33.389Z,85.54
2022-08-25T21:17:59.996Z,85.42
2022-08-25T21:20:27.089Z,85.72
2022-08-25T21:22:54.442Z,85.50
2022-08-25T21:25:21.667Z,85.58
2022-08-25T21:27:49.307Z,85.51
2022-08-25T21:30:16.052Z,85.08
2022-08-25T21:32:53.011Z,84.82
2022-08-25T21:35:21.015Z,84.67
2022-08-25T21:37:53.350Z,85.01
2022-08-25T21:40:21.426Z,85.14
2022-08-25T21:42:48.857Z,85.17
2022-08-25T21:45:16.158Z,85.14
2022-08-25T21:47:42.867Z,84.97
2022-08-25T21:50:12.744Z,85.34
2022-08-25T21:52:39.374Z,84.34
2022-08-25T21:55:08.214Z,84.57
2022-08-25T21:57:43.166Z,84.77
2022-08-25T22:00:11.549Z,84.62
2022-08-25T22:02:38.562Z,84.47
2022-08-25T22:05:09.356Z,84.85
2022-08-25T22:07:41.599Z,84.55
2022-08-25T22:10:16.459Z,84.85
2022-08-25T22:12:45.493Z,84.77
2022-08-25T22:15:13.629Z,85.55
2022-08-25T22:17:40.764Z,85.68
2022-08-25T22:20:08.094Z,85.84
2022-08-25T22:22:35.863Z,86.17
2022-08-25T22:25:02.648Z,86.18
2022-08-25T22:27:30.358Z,86.41
2022-08-25T22:29:57.007Z,86.08
2022-08-25T22:32:23.671Z,86.25
2022-08-25T22:34:50.530Z,85.98
2022-08-25T22:37:17.982Z,86.28
2022-08-25T22:39:45.553Z,86.15
2022-08-25T22:42:12.593Z,86.25
2022-08-25T22:44:40.075Z,86.31
2022-08-25T22:47:07.019Z,86.37
2022-08-25T22:49:35.498Z,86.26
2022-08-25T22:52:02.369Z,86.44
2022-08-25T22:54:29.927Z,86.55
2022-08-25T22:56:56.560Z,86.05
2022-08-25T22:59:23.184Z,86.10
2022-08-25T23:01:52.426Z,86.62
2022-08-25T23:04:19.222Z,86.84
2022-08-25T23:06:45.975Z,87.42
2022-08-25T23:09:13.836Z,87.71
2022-08-25T23:11:40.785Z,87.71
2022-08-25T23:14:10.299Z,87.76
2022-08-25T23:16:38.505Z,87.64
2022-08-25T23:19:05.470Z,87.45
2022-08-25T23:21:50.770Z,88.02
2022-08-25T23:24:29.449Z,87.61
2022-08-25T23:26:57.975Z,87.43
2022-08-25T23:29:25.251Z,87.40
2022-08-25T23:31:51.986Z,87.65
2022-08-25T23:34:20.396Z,87.88
2022-08-25T23:36:47.668Z,88.06
2022-08-25T23:39:14.283Z,88.37
2022-08-25T23:41:41.811Z,88.66
2022-08-25T23:44:17.100Z,88.85
2022-08-25T23:46:44.708Z,89.07
2022-08-25T23:49:11.356Z,88.77
2022-08-25T23:51:38.425Z,88.91
2022-08-25T23:54:07.112Z,88.63
2022-08-25T23:56:36.443Z,88.42
2022-08-25T23:59:03.526Z,88.32
